Flag for USA

Past Weather in Unalaska, Alaska, USA — Yesterday and Last 2 Weeks

Currently: 40 °F. Clear. (Weather station: Dutch Harbor, USA). See more current weather

Past Weather in Unalaska — Graph

°F

Unalaska Temperature Yesterday

Maximum temperature yesterday: 37 °F (at 8:56 am)
Minimum temperature yesterday: 34 °F (at 12:21 am)
Average temperature yesterday: 36 °F

High & Low Weather Summary for the Past Weeks

 TemperatureHumidityPressure
High43 °F (Jan 20, 9:11 am)93% (Jan 9, 5:34 pm)29.82 "Hg (Jan 9, 5:34 pm)
Low24 °F (Jan 7, 10:56 pm)52% (Jan 15, 12:56 pm)28.58 "Hg (Jan 9, 2:01 pm)
Average31 °F78%29.23 "Hg
* Reported Jan 5 7:33 pm — Jan 20 7:56 pm, Unalaska. Weather by CustomWeather, © 2021

Note: Actual official high and low records may vary slightly from our data, if they occured in-between our weather recording intervals... More about our weather records

Unalaska Weather History for the Previous 24 Hours

Scroll right to see more
 ConditionsComfort  
Time TempWeatherWind HumidityBarometerVisibility
7:56 pm
Wed, Jan 20
40 °FClear.20 mph63%29.49 "Hg10 mi
6:56 pm40 °FOvercast.28 mph63%29.44 "Hg10 mi
5:56 pm40 °FPartly sunny.28 mph60%29.39 "Hg10 mi
4:56 pm40 °FPartly sunny.16 mph63%29.36 "Hg10 mi
3:56 pm41 °FPartly sunny.23 mph58%29.30 "Hg10 mi
2:56 pm40 °FPartly sunny.23 mph65%29.23 "Hg10 mi
1:56 pm40 °FPartly sunny.25 mph65%29.18 "Hg10 mi
12:56 pm41 °FLight rain. Mostly cloudy.17 mph65%29.13 "Hg10 mi
11:56 am40 °FLight rain. Partly sunny.24 mph77%29.08 "Hg8 mi
10:56 am41 °FLight rain. Broken clouds.23 mph74%29.10 "Hg10 mi
10:18 am39 °FLight rain. Broken clouds.24 mph81%29.08 "Hg10 mi
9:56 am41 °FLight rain. Fog.28 mph82%29.10 "Hg6 mi
9:38 am43 °FLight rain. Fog.32 mph81%29.08 "Hg2 mi
9:11 am43 °FLight rain. Fog.36 mph81%29.09 "Hg2 mi
8:56 am41 °FLight rain. Fog.39 mph89%29.12 "Hg2 mi
8:27 am39 °FLight rain. Fog.37 mph93%29.13 "Hg2 mi
8:18 am39 °FLight rain. Fog.39 mph87%29.15 "Hg2 mi
7:56 am39 °FLight rain. Fog.37 mph86%29.21 "Hg3 mi
7:35 am37 °FLight rain. Fog.39 mph87%29.23 "Hg2 mi
6:56 am36 °FLight rain. Fog.32 mph85%29.32 "Hg2 mi
6:13 am36 °FLight snow. Fog.28 mph87%29.37 "Hg2 mi
5:56 am35 °FLight snow. Fog.31 mph85%29.40 "Hg3 mi
4:56 am37 °FOvercast.28 mph70%29.46 "Hg10 mi
4:37 am37 °FOvercast.31 mph70%29.48 "Hg10 mi
3:56 am37 °FPassing clouds.31 mph65%29.53 "Hg10 mi
2:56 am37 °FOvercast.23 mph65%29.60 "Hg10 mi
1:56 am37 °FOvercast.16 mph62%29.64 "Hg10 mi
12:56 am37 °FPassing clouds.15 mph65%29.66 "Hg10 mi
11:56 pm
Tue, Jan 19
36 °FClear.15 mph62%29.68 "Hg10 mi
10:56 pm34 °FClear.7 mph61%29.71 "Hg10 mi
9:56 pm34 °FClear.3 mph64%29.72 "Hg10 mi
Weather by CustomWeather, © 2021

See weather overview